sensor_id;sensor_type;location;lat;lon;timestamp;temperature;humidity
7512;DHT22;9999;48.780;9.146;2022-11-13T00:00:42;5.90;99.90
7512;DHT22;9999;48.780;9.146;2022-11-13T00:03:28;5.90;99.90
7512;DHT22;9999;48.780;9.146;2022-11-13T00:06:14;5.90;99.90
7512;DHT22;9999;48.780;9.146;2022-11-13T00:09:00;5.90;99.90
7512;DHT22;9999;48.780;9.146;2022-11-13T00:11:46;5.80;99.90
7512;DHT22;9999;48.780;9.146;2022-11-13T00:14:33;5.90;99.90
7512;DHT22;9999;48.780;9.146;2022-11-13T00:17:18;5.80;99.90
7512;DHT22;9999;48.780;9.146;2022-11-13T00:20:05;5.80;99.90
7512;DHT22;9999;48.780;9.146;2022-11-13T00:22:50;5.80;99.90
7512;DHT22;9999;48.780;9.146;2022-11-13T00:25:36;5.80;99.90
7512;DHT22;9999;48.780;9.146;2022-11-13T00:28:21;5.70;99.90
7512;DHT22;9999;48.780;9.146;2022-11-13T00:31:09;5.70;99.90
7512;DHT22;9999;48.780;9.146;2022-11-13T00:33:57;5.60;99.90
7512;DHT22;9999;48.780;9.146;2022-11-13T00:36:42;5.50;99.90
7512;DHT22;9999;48.780;9.146;2022-11-13T00:39:28;5.50;99.90
7512;DHT22;9999;48.780;9.146;2022-11-13T00:42:13;5.60;99.90
7512;DHT22;9999;48.780;9.146;2022-11-13T00:44:59;5.60;99.90
7512;DHT22;9999;48.780;9.146;2022-11-13T00:47:46;5.60;99.90
7512;DHT22;9999;48.780;9.146;2022-11-13T00:50:31;5.50;99.90
7512;DHT22;9999;48.780;9.146;2022-11-13T00:53:17;5.40;99.90
7512;DHT22;9999;48.780;9.146;2022-11-13T00:56:03;5.40;99.90
7512;DHT22;9999;48.780;9.146;2022-11-13T00:58:49;5.40;99.90
7512;DHT22;9999;48.780;9.146;2022-11-13T01:01:35;5.30;99.90
7512;DHT22;9999;48.780;9.146;2022-11-13T01:04:22;5.20;99.90
7512;DHT22;9999;48.780;9.146;2022-11-13T01:07:08;5.30;99.90
7512;DHT22;9999;48.780;9.146;2022-11-13T01:09:53;5.40;99.90
7512;DHT22;9999;48.780;9.146;2022-11-13T01:12:39;5.40;99.90
7512;DHT22;9999;48.780;9.146;2022-11-13T01:15:25;5.50;99.90
7512;DHT22;9999;48.780;9.146;2022-11-13T01:18:11;5.40;99.90
7512;DHT22;9999;48.780;9.146;2022-11-13T01:21:03;5.40;99.90
7512;DHT22;9999;48.780;9.146;2022-11-13T01:23:49;5.40;99.90
7512;DHT22;9999;48.780;9.146;2022-11-13T01:26:34;5.30;99.90
7512;DHT22;9999;48.780;9.146;2022-11-13T01:29:20;5.20;99.90
7512;DHT22;9999;48.780;9.146;2022-11-13T01:32:05;5.20;99.90
7512;DHT22;9999;48.780;9.146;2022-11-13T01:34:51;5.20;99.90
7512;DHT22;9999;48.780;9.146;2022-11-13T01:37:38;5.20;99.90
7512;DHT22;9999;48.780;9.146;2022-11-13T01:40:23;5.20;99.90
7512;DHT22;9999;48.780;9.146;2022-11-13T01:43:23;5.20;99.90
7512;DHT22;9999;48.780;9.146;2022-11-13T01:46:19;5.10;99.90
7512;DHT22;9999;48.780;9.146;2022-11-13T01:49:17;5.00;99.90
7512;DHT22;9999;48.780;9.146;2022-11-13T01:52:07;4.90;99.90
7512;DHT22;9999;48.780;9.146;2022-11-13T01:54:59;4.90;99.90
7512;DHT22;9999;48.780;9.146;2022-11-13T01:57:47;4.90;99.90
7512;DHT22;9999;48.780;9.146;2022-11-13T02:00:32;4.80;99.90
7512;DHT22;9999;48.780;9.146;2022-11-13T02:03:18;4.90;99.90
7512;DHT22;9999;48.780;9.146;2022-11-13T02:06:04;5.00;99.90
7512;DHT22;9999;48.780;9.146;2022-11-13T02:08:50;4.90;99.90
7512;DHT22;9999;48.780;9.146;2022-11-13T02:11:37;5.00;99.90
7512;DHT22;9999;48.780;9.146;2022-11-13T02:14:25;5.00;99.90
7512;DHT22;9999;48.780;9.146;2022-11-13T02:17:15;5.00;99.90
7512;DHT22;9999;48.780;9.146;2022-11-13T02:20:05;4.80;99.90
7512;DHT22;9999;48.780;9.146;2022-11-13T02:22:58;4.80;99.90
7512;DHT22;9999;48.780;9.146;2022-11-13T02:25:49;4.70;99.90
7512;DHT22;9999;48.780;9.146;2022-11-13T02:28:36;4.70;99.90
7512;DHT22;9999;48.780;9.146;2022-11-13T02:31:22;4.70;99.90
7512;DHT22;9999;48.780;9.146;2022-11-13T02:34:07;4.70;99.90
7512;DHT22;9999;48.780;9.146;2022-11-13T02:36:53;4.60;99.90
7512;DHT22;9999;48.780;9.146;2022-11-13T02:39:39;4.60;99.90
7512;DHT22;9999;48.780;9.146;2022-11-13T02:42:26;4.50;99.90
7512;DHT22;9999;48.780;9.146;2022-11-13T02:45:11;4.60;99.90
7512;DHT22;9999;48.780;9.146;2022-11-13T02:47:59;4.60;99.90
7512;DHT22;9999;48.780;9.146;2022-11-13T02:50:45;4.50;99.90
7512;DHT22;9999;48.780;9.146;2022-11-13T02:53:31;4.50;99.90
7512;DHT22;9999;48.780;9.146;2022-11-13T02:56:16;4.40;99.90
7512;DHT22;9999;48.780;9.146;2022-11-13T02:59:03;4.40;99.90
7512;DHT22;9999;48.780;9.146;2022-11-13T03:01:48;4.40;99.90
7512;DHT22;9999;48.780;9.146;2022-11-13T03:04:34;4.40;99.90
7512;DHT22;9999;48.780;9.146;2022-11-13T03:07:20;4.40;99.90
7512;DHT22;9999;48.780;9.146;2022-11-13T03:10:06;4.30;99.90
7512;DHT22;9999;48.780;9.146;2022-11-13T03:12:51;4.30;99.90
7512;DHT22;9999;48.780;9.146;2022-11-13T03:15:38;4.30;99.90
7512;DHT22;9999;48.780;9.146;2022-11-13T03:18:24;4.30;99.90
7512;DHT22;9999;48.780;9.146;2022-11-13T03:21:12;4.30;99.90
7512;DHT22;9999;48.780;9.146;2022-11-13T03:23:58;4.20;99.90
7512;DHT22;9999;48.780;9.146;2022-11-13T03:26:44;4.20;99.90
7512;DHT22;9999;48.780;9.146;2022-11-13T03:29:29;4.20;99.90
7512;DHT22;9999;48.780;9.146;2022-11-13T03:32:16;4.10;99.90
7512;DHT22;9999;48.780;9.146;2022-11-13T03:35:02;4.00;99.90
7512;DHT22;9999;48.780;9.146;2022-11-13T03:37:47;4.00;99.90
7512;DHT22;9999;48.780;9.146;2022-11-13T03:40:33;3.90;99.90
7512;DHT22;9999;48.780;9.146;2022-11-13T03:43:19;3.90;99.90
7512;DHT22;9999;48.780;9.146;2022-11-13T03:46:04;4.00;99.90
7512;DHT22;9999;48.780;9.146;2022-11-13T03:48:51;4.10;99.90
7512;DHT22;9999;48.780;9.146;2022-11-13T03:51:36;4.00;99.90
7512;DHT22;9999;48.780;9.146;2022-11-13T03:54:22;4.00;99.90
7512;DHT22;9999;48.780;9.146;2022-11-13T03:57:07;4.00;99.90
7512;DHT22;9999;48.780;9.146;2022-11-13T03:59:54;4.00;99.90
7512;DHT22;9999;48.780;9.146;2022-11-13T04:02:39;3.90;99.90
7512;DHT22;9999;48.780;9.146;2022-11-13T04:05:26;3.80;99.90
7512;DHT22;9999;48.780;9.146;2022-11-13T04:08:11;3.90;99.90
7512;DHT22;9999;48.780;9.146;2022-11-13T04:11:05;3.80;99.90
7512;DHT22;9999;48.780;9.146;2022-11-13T04:13:50;3.90;99.90
7512;DHT22;9999;48.780;9.146;2022-11-13T04:16:36;4.00;99.90
7512;DHT22;9999;48.780;9.146;2022-11-13T04:19:21;3.90;99.90
7512;DHT22;9999;48.780;9.146;2022-11-13T04:22:08;4.00;99.90
7512;DHT22;9999;48.780;9.146;2022-11-13T04:24:54;4.00;99.90
7512;DHT22;9999;48.780;9.146;2022-11-13T04:27:39;3.90;99.90
7512;DHT22;9999;48.780;9.146;2022-11-13T04:30:25;3.90;99.90
7512;DHT22;9999;48.780;9.146;2022-11-13T04:33:10;3.90;99.90
7512;DHT22;9999;48.780;9.146;2022-11-13T04:35:56;3.90;99.90
7512;DHT22;9999;48.780;9.146;2022-11-13T04:38:43;3.90;99.90
7512;DHT22;9999;48.780;9.146;2022-11-13T04:41:28;4.00;99.90
7512;DHT22;9999;48.780;9.146;2022-11-13T04:44:31;4.00;99.90
7512;DHT22;9999;48.780;9.146;2022-11-13T04:47:17;3.90;99.90
7512;DHT22;9999;48.780;9.146;2022-11-13T04:50:03;3.80;99.90
7512;DHT22;9999;48.780;9.146;2022-11-13T04:52:49;3.80;99.90
7512;DHT22;9999;48.780;9.146;2022-11-13T04:55:36;3.90;99.90
7512;DHT22;9999;48.780;9.146;2022-11-13T04:58:21;3.90;99.90
7512;DHT22;9999;48.780;9.146;2022-11-13T05:01:07;3.80;99.90
7512;DHT22;9999;48.780;9.146;2022-11-13T05:03:53;3.80;99.90
7512;DHT22;9999;48.780;9.146;2022-11-13T05:06:38;3.80;99.90
7512;DHT22;9999;48.780;9.146;2022-11-13T05:09:24;3.80;99.90
7512;DHT22;9999;48.780;9.146;2022-11-13T05:12:10;3.80;99.90
7512;DHT22;9999;48.780;9.146;2022-11-13T05:14:56;3.70;99.90
7512;DHT22;9999;48.780;9.146;2022-11-13T05:17:42;3.70;99.90
7512;DHT22;9999;48.780;9.146;2022-11-13T05:20:27;3.70;99.90
7512;DHT22;9999;48.780;9.146;2022-11-13T05:23:13;3.70;99.90
7512;DHT22;9999;48.780;9.146;2022-11-13T05:26:02;3.70;99.90
7512;DHT22;9999;48.780;9.146;2022-11-13T05:28:49;3.60;99.90
7512;DHT22;9999;48.780;9.146;2022-11-13T05:31:34;3.70;99.90
7512;DHT22;9999;48.780;9.146;2022-11-13T05:34:20;3.60;99.90
7512;DHT22;9999;48.780;9.146;2022-11-13T05:37:06;3.60;99.90
7512;DHT22;9999;48.780;9.146;2022-11-13T05:39:52;3.60;99.90
7512;DHT22;9999;48.780;9.146;2022-11-13T05:42:38;3.60;99.90
7512;DHT22;9999;48.780;9.146;2022-11-13T05:45:24;3.60;99.90
7512;DHT22;9999;48.780;9.146;2022-11-13T05:48:10;3.50;99.90
7512;DHT22;9999;48.780;9.146;2022-11-13T05:51:00;3.60;99.90
7512;DHT22;9999;48.780;9.146;2022-11-13T05:53:46;3.50;99.90
7512;DHT22;9999;48.780;9.146;2022-11-13T05:56:34;3.50;99.90
7512;DHT22;9999;48.780;9.146;2022-11-13T05:59:19;3.40;99.90
7512;DHT22;9999;48.780;9.146;2022-11-13T06:02:06;3.40;99.90
7512;DHT22;9999;48.780;9.146;2022-11-13T06:04:52;3.30;99.90
7512;DHT22;9999;48.780;9.146;2022-11-13T06:07:37;3.30;99.90
7512;DHT22;9999;48.780;9.146;2022-11-13T06:10:22;3.20;99.90
7512;DHT22;9999;48.780;9.146;2022-11-13T06:13:08;3.20;99.90
7512;DHT22;9999;48.780;9.146;2022-11-13T06:15:54;3.10;99.90
7512;DHT22;9999;48.780;9.146;2022-11-13T06:18:42;3.10;99.90
7512;DHT22;9999;48.780;9.146;2022-11-13T06:21:29;3.10;99.90
7512;DHT22;9999;48.780;9.146;2022-11-13T06:24:14;3.10;99.90
7512;DHT22;9999;48.780;9.146;2022-11-13T06:27:00;3.00;99.90
7512;DHT22;9999;48.780;9.146;2022-11-13T06:29:46;3.00;99.90
7512;DHT22;9999;48.780;9.146;2022-11-13T06:32:31;3.00;99.90
7512;DHT22;9999;48.780;9.146;2022-11-13T06:35:18;3.10;99.90
7512;DHT22;9999;48.780;9.146;2022-11-13T06:38:03;3.10;99.90
7512;DHT22;9999;48.780;9.146;2022-11-13T06:40:49;3.10;99.90
7512;DHT22;9999;48.780;9.146;2022-11-13T06:43:34;3.00;99.90
7512;DHT22;9999;48.780;9.146;2022-11-13T06:46:21;3.00;99.90
7512;DHT22;9999;48.780;9.146;2022-11-13T06:49:07;3.10;99.90
7512;DHT22;9999;48.780;9.146;2022-11-13T06:51:54;3.10;99.90
7512;DHT22;9999;48.780;9.146;2022-11-13T06:54:39;3.10;99.90
7512;DHT22;9999;48.780;9.146;2022-11-13T06:57:25;3.00;99.90
7512;DHT22;9999;48.780;9.146;2022-11-13T07:00:11;3.10;99.90
7512;DHT22;9999;48.780;9.146;2022-11-13T07:02:57;3.10;99.90
7512;DHT22;9999;48.780;9.146;2022-11-13T07:05:43;3.10;99.90
7512;DHT22;9999;48.780;9.146;2022-11-13T07:08:30;3.10;99.90
7512;DHT22;9999;48.780;9.146;2022-11-13T07:11:17;3.10;99.90
7512;DHT22;9999;48.780;9.146;2022-11-13T07:14:02;3.20;99.90
7512;DHT22;9999;48.780;9.146;2022-11-13T07:16:48;3.20;99.90
7512;DHT22;9999;48.780;9.146;2022-11-13T07:19:33;3.20;99.90
7512;DHT22;9999;48.780;9.146;2022-11-13T07:22:19;3.30;99.90
7512;DHT22;9999;48.780;9.146;2022-11-13T07:25:07;3.20;99.90
7512;DHT22;9999;48.780;9.146;2022-11-13T07:27:52;3.30;99.90
7512;DHT22;9999;48.780;9.146;2022-11-13T07:30:38;3.30;99.90
7512;DHT22;9999;48.780;9.146;2022-11-13T07:33:23;3.40;99.90
7512;DHT22;9999;48.780;9.146;2022-11-13T07:36:09;3.40;99.90
7512;DHT22;9999;48.780;9.146;2022-11-13T07:38:55;3.40;99.90
7512;DHT22;9999;48.780;9.146;2022-11-13T07:41:42;3.40;99.90
7512;DHT22;9999;48.780;9.146;2022-11-13T07:44:27;3.40;99.90
7512;DHT22;9999;48.780;9.146;2022-11-13T07:47:13;3.30;99.90
7512;DHT22;9999;48.780;9.146;2022-11-13T07:49:59;3.30;99.90
7512;DHT22;9999;48.780;9.146;2022-11-13T07:52:44;3.30;99.90
7512;DHT22;9999;48.780;9.146;2022-11-13T07:55:30;3.50;99.90
7512;DHT22;9999;48.780;9.146;2022-11-13T07:58:18;3.50;99.90
7512;DHT22;9999;48.780;9.146;2022-11-13T08:01:04;3.50;99.90
7512;DHT22;9999;48.780;9.146;2022-11-13T08:03:50;3.50;99.90
7512;DHT22;9999;48.780;9.146;2022-11-13T08:06:36;3.70;99.90
7512;DHT22;9999;48.780;9.146;2022-11-13T08:09:21;3.70;99.90
7512;DHT22;9999;48.780;9.146;2022-11-13T08:12:07;3.70;99.90
7512;DHT22;9999;48.780;9.146;2022-11-13T08:14:54;3.70;99.90
7512;DHT22;9999;48.780;9.146;2022-11-13T08:17:39;3.60;99.90
7512;DHT22;9999;48.780;9.146;2022-11-13T08:20:26;3.50;99.90
7512;DHT22;9999;48.780;9.146;2022-11-13T08:23:12;3.60;99.90
7512;DHT22;9999;48.780;9.146;2022-11-13T08:26:00;3.80;99.90
7512;DHT22;9999;48.780;9.146;2022-11-13T08:28:47;3.90;99.90
7512;DHT22;9999;48.780;9.146;2022-11-13T08:31:34;3.90;99.90
7512;DHT22;9999;48.780;9.146;2022-11-13T08:34:20;3.90;99.90
7512;DHT22;9999;48.780;9.146;2022-11-13T08:37:06;3.90;99.90
7512;DHT22;9999;48.780;9.146;2022-11-13T08:39:52;3.90;99.90
7512;DHT22;9999;48.780;9.146;2022-11-13T08:42:37;3.80;99.90
7512;DHT22;9999;48.780;9.146;2022-11-13T08:45:23;3.70;99.90
7512;DHT22;9999;48.780;9.146;2022-11-13T08:48:12;3.60;99.90
7512;DHT22;9999;48.780;9.146;2022-11-13T08:50:57;3.60;99.90
7512;DHT22;9999;48.780;9.146;2022-11-13T08:53:43;3.70;99.90
7512;DHT22;9999;48.780;9.146;2022-11-13T08:56:29;3.90;99.90
7512;DHT22;9999;48.780;9.146;2022-11-13T08:59:14;4.00;99.90
7512;DHT22;9999;48.780;9.146;2022-11-13T09:01:59;3.90;99.90
7512;DHT22;9999;48.780;9.146;2022-11-13T09:04:46;4.00;99.90
7512;DHT22;9999;48.780;9.146;2022-11-13T09:07:32;4.10;99.90
7512;DHT22;9999;48.780;9.146;2022-11-13T09:10:18;4.20;99.90
7512;DHT22;9999;48.780;9.146;2022-11-13T09:13:04;4.30;99.90
7512;DHT22;9999;48.780;9.146;2022-11-13T09:15:52;4.20;99.90
7512;DHT22;9999;48.780;9.146;2022-11-13T09:18:37;4.30;99.90
7512;DHT22;9999;48.780;9.146;2022-11-13T09:21:24;4.20;99.90
7512;DHT22;9999;48.780;9.146;2022-11-13T09:24:09;4.20;99.90
7512;DHT22;9999;48.780;9.146;2022-11-13T09:26:55;4.30;99.90
7512;DHT22;9999;48.780;9.146;2022-11-13T09:29:40;4.40;99.90
7512;DHT22;9999;48.780;9.146;2022-11-13T09:32:26;4.50;99.90
7512;DHT22;9999;48.780;9.146;2022-11-13T09:35:12;4.60;99.90
7512;DHT22;9999;48.780;9.146;2022-11-13T09:37:59;4.60;99.90
7512;DHT22;9999;48.780;9.146;2022-11-13T09:40:48;4.70;99.90
7512;DHT22;9999;48.780;9.146;2022-11-13T09:43:38;4.80;99.90
7512;DHT22;9999;48.780;9.146;2022-11-13T09:46:36;4.70;99.90
7512;DHT22;9999;48.780;9.146;2022-11-13T09:49:25;4.80;99.90
7512;DHT22;9999;48.780;9.146;2022-11-13T09:52:14;4.90;99.90
7512;DHT22;9999;48.780;9.146;2022-11-13T09:55:03;5.00;99.90
7512;DHT22;9999;48.780;9.146;2022-11-13T09:57:53;5.10;99.90
7512;DHT22;9999;48.780;9.146;2022-11-13T10:00:42;5.20;99.90
7512;DHT22;9999;48.780;9.146;2022-11-13T10:03:34;5.20;99.90
7512;DHT22;9999;48.780;9.146;2022-11-13T10:06:26;5.30;99.90
7512;DHT22;9999;48.780;9.146;2022-11-13T10:09:21;5.40;99.90
7512;DHT22;9999;48.780;9.146;2022-11-13T10:12:12;5.50;99.90
7512;DHT22;9999;48.780;9.146;2022-11-13T10:15:00;5.60;99.90
7512;DHT22;9999;48.780;9.146;2022-11-13T10:17:50;5.80;99.90
7512;DHT22;9999;48.780;9.146;2022-11-13T10:20:40;5.80;99.90
7512;DHT22;9999;48.780;9.146;2022-11-13T10:23:31;5.80;99.90
7512;DHT22;9999;48.780;9.146;2022-11-13T10:26:19;5.80;99.90
7512;DHT22;9999;48.780;9.146;2022-11-13T10:29:10;5.90;99.90
7512;DHT22;9999;48.780;9.146;2022-11-13T10:31:56;5.90;99.90
7512;DHT22;9999;48.780;9.146;2022-11-13T10:34:43;6.00;99.90
7512;DHT22;9999;48.780;9.146;2022-11-13T10:37:47;6.10;99.90
7512;DHT22;9999;48.780;9.146;2022-11-13T10:40:37;6.20;99.90
7512;DHT22;9999;48.780;9.146;2022-11-13T10:43:24;6.30;99.90
7512;DHT22;9999;48.780;9.146;2022-11-13T10:46:18;6.50;99.90
7512;DHT22;9999;48.780;9.146;2022-11-13T10:49:11;6.70;99.90
7512;DHT22;9999;48.780;9.146;2022-11-13T10:51:58;6.80;99.90
7512;DHT22;9999;48.780;9.146;2022-11-13T10:54:45;7.10;99.90
7512;DHT22;9999;48.780;9.146;2022-11-13T10:57:32;7.30;99.90
7512;DHT22;9999;48.780;9.146;2022-11-13T11:00:21;7.50;99.90
7512;DHT22;9999;48.780;9.146;2022-11-13T11:03:13;7.70;99.90
7512;DHT22;9999;48.780;9.146;2022-11-13T11:06:00;7.80;99.90
7512;DHT22;9999;48.780;9.146;2022-11-13T11:08:46;8.00;99.90
7512;DHT22;9999;48.780;9.146;2022-11-13T11:11:31;8.10;99.90
7512;DHT22;9999;48.780;9.146;2022-11-13T11:14:38;8.20;99.90
7512;DHT22;9999;48.780;9.146;2022-11-13T11:17:28;8.20;99.90
7512;DHT22;9999;48.780;9.146;2022-11-13T11:20:22;8.40;99.90
7512;DHT22;9999;48.780;9.146;2022-11-13T11:23:16;8.40;99.90
7512;DHT22;9999;48.780;9.146;2022-11-13T11:26:08;8.60;99.90
7512;DHT22;9999;48.780;9.146;2022-11-13T11:29:04;8.70;99.90
7512;DHT22;9999;48.780;9.146;2022-11-13T11:31:54;8.70;99.90
7512;DHT22;9999;48.780;9.146;2022-11-13T11:34:43;8.80;99.90
7512;DHT22;9999;48.780;9.146;2022-11-13T11:37:35;9.00;99.90
7512;DHT22;9999;48.780;9.146;2022-11-13T11:40:26;9.10;99.90
7512;DHT22;9999;48.780;9.146;2022-11-13T11:43:18;9.10;99.90
7512;DHT22;9999;48.780;9.146;2022-11-13T11:46:07;9.40;99.90
7512;DHT22;9999;48.780;9.146;2022-11-13T11:48:55;9.70;99.90
7512;DHT22;9999;48.780;9.146;2022-11-13T11:51:49;9.70;99.90
7512;DHT22;9999;48.780;9.146;2022-11-13T11:54:40;9.80;99.90
7512;DHT22;9999;48.780;9.146;2022-11-13T11:57:36;9.90;99.90
7512;DHT22;9999;48.780;9.146;2022-11-13T12:00:24;10.00;99.90
7512;DHT22;9999;48.780;9.146;2022-11-13T12:03:49;10.00;99.90
7512;DHT22;9999;48.780;9.146;2022-11-13T12:06:48;9.90;99.90
7512;DHT22;9999;48.780;9.146;2022-11-13T12:09:37;10.00;99.90
7512;DHT22;9999;48.780;9.146;2022-11-13T12:15:37;10.20;99.90
7512;DHT22;9999;48.780;9.146;2022-11-13T12:18:32;10.20;99.90
7512;DHT22;9999;48.780;9.146;2022-11-13T12:21:25;10.00;99.90
7512;DHT22;9999;48.780;9.146;2022-11-13T12:24:43;10.00;99.90
7512;DHT22;9999;48.780;9.146;2022-11-13T12:27:35;10.20;99.90
7512;DHT22;9999;48.780;9.146;2022-11-13T12:30:30;10.40;99.90
7512;DHT22;9999;48.780;9.146;2022-11-13T12:33:23;10.50;99.90
7512;DHT22;9999;48.780;9.146;2022-11-13T12:36:13;10.50;99.90
7512;DHT22;9999;48.780;9.146;2022-11-13T12:39:04;10.60;99.90
7512;DHT22;9999;48.780;9.146;2022-11-13T12:41:57;10.60;99.90
7512;DHT22;9999;48.780;9.146;2022-11-13T12:44:51;10.30;99.90
7512;DHT22;9999;48.780;9.146;2022-11-13T12:47:38;10.40;99.90
7512;DHT22;9999;48.780;9.146;2022-11-13T12:50:26;10.60;99.90
7512;DHT22;9999;48.780;9.146;2022-11-13T12:53:22;10.80;99.90
7512;DHT22;9999;48.780;9.146;2022-11-13T12:56:14;11.00;99.90
7512;DHT22;9999;48.780;9.146;2022-11-13T13:02:26;10.70;99.90
7512;DHT22;9999;48.780;9.146;2022-11-13T13:05:25;10.80;99.90
7512;DHT22;9999;48.780;9.146;2022-11-13T13:08:41;10.80;99.90
7512;DHT22;9999;48.780;9.146;2022-11-13T13:11:36;11.00;99.90
7512;DHT22;9999;48.780;9.146;2022-11-13T13:14:40;11.00;99.90
7512;DHT22;9999;48.780;9.146;2022-11-13T13:17:28;10.90;99.90
7512;DHT22;9999;48.780;9.146;2022-11-13T13:20:29;11.00;99.90
7512;DHT22;9999;48.780;9.146;2022-11-13T13:23:25;11.10;99.90
7512;DHT22;9999;48.780;9.146;2022-11-13T13:26:16;10.90;99.90
7512;DHT22;9999;48.780;9.146;2022-11-13T13:29:13;11.00;99.90
7512;DHT22;9999;48.780;9.146;2022-11-13T13:32:10;11.10;99.90
7512;DHT22;9999;48.780;9.146;2022-11-13T13:35:03;10.90;99.90
7512;DHT22;9999;48.780;9.146;2022-11-13T13:37:55;10.60;99.90
7512;DHT22;9999;48.780;9.146;2022-11-13T13:40:53;10.50;99.90
7512;DHT22;9999;48.780;9.146;2022-11-13T13:43:52;10.60;99.90
7512;DHT22;9999;48.780;9.146;2022-11-13T13:46:40;10.70;99.90
7512;DHT22;9999;48.780;9.146;2022-11-13T13:49:27;10.80;99.90
7512;DHT22;9999;48.780;9.146;2022-11-13T13:52:14;10.70;99.90
7512;DHT22;9999;48.780;9.146;2022-11-13T13:55:01;10.70;99.90
7512;DHT22;9999;48.780;9.146;2022-11-13T13:57:47;10.70;99.90
7512;DHT22;9999;48.780;9.146;2022-11-13T14:00:33;10.70;99.90
7512;DHT22;9999;48.780;9.146;2022-11-13T14:03:20;10.70;99.90
7512;DHT22;9999;48.780;9.146;2022-11-13T14:06:18;10.70;99.90
7512;DHT22;9999;48.780;9.146;2022-11-13T14:09:07;10.80;99.90
7512;DHT22;9999;48.780;9.146;2022-11-13T14:11:57;10.60;99.90
7512;DHT22;9999;48.780;9.146;2022-11-13T14:14:42;10.50;99.90
7512;DHT22;9999;48.780;9.146;2022-11-13T14:17:28;10.40;99.90
7512;DHT22;9999;48.780;9.146;2022-11-13T14:20:15;10.40;99.90
7512;DHT22;9999;48.780;9.146;2022-11-13T14:23:03;10.20;99.90
7512;DHT22;9999;48.780;9.146;2022-11-13T14:25:48;10.20;99.90
7512;DHT22;9999;48.780;9.146;2022-11-13T14:28:43;10.20;99.90
7512;DHT22;9999;48.780;9.146;2022-11-13T14:31:31;10.20;99.90
7512;DHT22;9999;48.780;9.146;2022-11-13T14:34:19;10.00;99.90
7512;DHT22;9999;48.780;9.146;2022-11-13T14:37:19;10.00;99.90
7512;DHT22;9999;48.780;9.146;2022-11-13T14:40:14;10.00;99.90
7512;DHT22;9999;48.780;9.146;2022-11-13T14:43:05;10.00;99.90
7512;DHT22;9999;48.780;9.146;2022-11-13T14:45:56;9.90;99.90
7512;DHT22;9999;48.780;9.146;2022-11-13T14:48:51;9.80;99.90
7512;DHT22;9999;48.780;9.146;2022-11-13T14:51:38;9.80;99.90
7512;DHT22;9999;48.780;9.146;2022-11-13T14:54:29;9.70;99.90
7512;DHT22;9999;48.780;9.146;2022-11-13T14:57:16;9.70;99.90
7512;DHT22;9999;48.780;9.146;2022-11-13T15:00:10;9.70;99.90
7512;DHT22;9999;48.780;9.146;2022-11-13T15:02:56;9.60;99.90
7512;DHT22;9999;48.780;9.146;2022-11-13T15:05:42;9.60;99.90
7512;DHT22;9999;48.780;9.146;2022-11-13T15:08:27;9.50;99.90
7512;DHT22;9999;48.780;9.146;2022-11-13T15:11:14;9.40;99.90
7512;DHT22;9999;48.780;9.146;2022-11-13T15:14:01;9.40;99.90
7512;DHT22;9999;48.780;9.146;2022-11-13T15:16:47;9.30;99.90
7512;DHT22;9999;48.780;9.146;2022-11-13T15:19:34;9.20;99.90
7512;DHT22;9999;48.780;9.146;2022-11-13T15:22:20;9.20;99.90
7512;DHT22;9999;48.780;9.146;2022-11-13T15:25:13;9.20;99.90
7512;DHT22;9999;48.780;9.146;2022-11-13T15:28:24;9.10;99.90
7512;DHT22;9999;48.780;9.146;2022-11-13T15:31:17;9.10;99.90
7512;DHT22;9999;48.780;9.146;2022-11-13T15:34:03;9.00;99.90
7512;DHT22;9999;48.780;9.146;2022-11-13T15:36:48;8.90;99.90
7512;DHT22;9999;48.780;9.146;2022-11-13T15:39:34;8.80;99.90
7512;DHT22;9999;48.780;9.146;2022-11-13T15:42:26;8.70;99.90
7512;DHT22;9999;48.780;9.146;2022-11-13T15:45:14;8.70;99.90
7512;DHT22;9999;48.780;9.146;2022-11-13T15:48:00;8.70;99.90
7512;DHT22;9999;48.780;9.146;2022-11-13T15:50:46;8.70;99.90
7512;DHT22;9999;48.780;9.146;2022-11-13T15:53:32;8.70;99.90
7512;DHT22;9999;48.780;9.146;2022-11-13T15:56:18;8.60;99.90
7512;DHT22;9999;48.780;9.146;2022-11-13T15:59:03;8.60;99.90
7512;DHT22;9999;48.780;9.146;2022-11-13T16:01:49;8.40;99.90
7512;DHT22;9999;48.780;9.146;2022-11-13T16:04:36;8.30;99.90
7512;DHT22;9999;48.780;9.146;2022-11-13T16:07:26;8.30;99.90
7512;DHT22;9999;48.780;9.146;2022-11-13T16:10:13;8.30;99.90
7512;DHT22;9999;48.780;9.146;2022-11-13T16:12:59;8.30;99.90
7512;DHT22;9999;48.780;9.146;2022-11-13T16:15:45;8.30;99.90
7512;DHT22;9999;48.780;9.146;2022-11-13T16:18:32;8.30;99.90
7512;DHT22;9999;48.780;9.146;2022-11-13T16:21:20;8.20;99.90
7512;DHT22;9999;48.780;9.146;2022-11-13T16:24:05;8.20;99.90
7512;DHT22;9999;48.780;9.146;2022-11-13T16:26:54;8.10;99.90
7512;DHT22;9999;48.780;9.146;2022-11-13T16:29:40;8.10;99.90
7512;DHT22;9999;48.780;9.146;2022-11-13T16:32:25;8.00;99.90
7512;DHT22;9999;48.780;9.146;2022-11-13T16:35:12;8.10;99.90
7512;DHT22;9999;48.780;9.146;2022-11-13T16:37:59;7.90;99.90
7512;DHT22;9999;48.780;9.146;2022-11-13T16:40:45;7.80;99.90
7512;DHT22;9999;48.780;9.146;2022-11-13T16:43:30;7.70;99.90
7512;DHT22;9999;48.780;9.146;2022-11-13T16:46:19;7.70;99.90
7512;DHT22;9999;48.780;9.146;2022-11-13T16:49:11;7.70;99.90
7512;DHT22;9999;48.780;9.146;2022-11-13T16:52:02;7.80;99.90
7512;DHT22;9999;48.780;9.146;2022-11-13T16:54:48;7.80;99.90
7512;DHT22;9999;48.780;9.146;2022-11-13T16:57:34;7.80;99.90
7512;DHT22;9999;48.780;9.146;2022-11-13T17:00:20;7.80;99.90
7512;DHT22;9999;48.780;9.146;2022-11-13T17:03:08;7.70;99.90
7512;DHT22;9999;48.780;9.146;2022-11-13T17:05:53;7.60;99.90
7512;DHT22;9999;48.780;9.146;2022-11-13T17:08:39;7.60;99.90
7512;DHT22;9999;48.780;9.146;2022-11-13T17:11:28;7.60;99.90
7512;DHT22;9999;48.780;9.146;2022-11-13T17:14:14;7.60;99.90
7512;DHT22;9999;48.780;9.146;2022-11-13T17:16:59;7.60;99.90
7512;DHT22;9999;48.780;9.146;2022-11-13T17:19:45;7.70;99.90
7512;DHT22;9999;48.780;9.146;2022-11-13T17:22:31;7.50;99.90
7512;DHT22;9999;48.780;9.146;2022-11-13T17:25:17;7.50;99.90
7512;DHT22;9999;48.780;9.146;2022-11-13T17:28:04;7.40;99.90
7512;DHT22;9999;48.780;9.146;2022-11-13T17:30:50;7.30;99.90
7512;DHT22;9999;48.780;9.146;2022-11-13T17:33:35;7.30;99.90
7512;DHT22;9999;48.780;9.146;2022-11-13T17:36:25;7.30;99.90
7512;DHT22;9999;48.780;9.146;2022-11-13T17:39:11;7.20;99.90
7512;DHT22;9999;48.780;9.146;2022-11-13T17:41:56;7.30;99.90
7512;DHT22;9999;48.780;9.146;2022-11-13T17:44:43;7.20;99.90
7512;DHT22;9999;48.780;9.146;2022-11-13T17:47:29;7.30;99.90
7512;DHT22;9999;48.780;9.146;2022-11-13T17:50:17;7.30;99.90
7512;DHT22;9999;48.780;9.146;2022-11-13T17:53:03;7.40;99.90
7512;DHT22;9999;48.780;9.146;2022-11-13T17:55:52;7.30;99.90
7512;DHT22;9999;48.780;9.146;2022-11-13T17:58:40;7.20;99.90
7512;DHT22;9999;48.780;9.146;2022-11-13T18:01:27;7.20;99.90
7512;DHT22;9999;48.780;9.146;2022-11-13T18:04:14;7.20;99.90
7512;DHT22;9999;48.780;9.146;2022-11-13T18:07:00;7.10;99.90
7512;DHT22;9999;48.780;9.146;2022-11-13T18:09:45;7.10;99.90
7512;DHT22;9999;48.780;9.146;2022-11-13T18:12:31;7.10;99.90
7512;DHT22;9999;48.780;9.146;2022-11-13T18:15:17;7.10;99.90
7512;DHT22;9999;48.780;9.146;2022-11-13T18:18:04;7.00;99.90
7512;DHT22;9999;48.780;9.146;2022-11-13T18:20:50;7.00;99.90
7512;DHT22;9999;48.780;9.146;2022-11-13T18:23:35;7.00;99.90
7512;DHT22;9999;48.780;9.146;2022-11-13T18:26:21;6.90;99.90
7512;DHT22;9999;48.780;9.146;2022-11-13T18:29:07;6.90;99.90
7512;DHT22;9999;48.780;9.146;2022-11-13T18:31:52;6.60;99.90
7512;DHT22;9999;48.780;9.146;2022-11-13T18:34:40;6.60;99.90
7512;DHT22;9999;48.780;9.146;2022-11-13T18:37:25;6.40;99.90